Time;durP1;ratioP1;P1;durP2;ratioP2;P2;SDS_P1;SDS_P2;PMS_P1;PMS_P2;Temp;Humidity;BMP_temperature;BMP_pressure;BME280_temperature;BME280_humidity;BME280_pressure;Samples;Min_cycle;Max_cycle;Signal;HPM_P1;HPM_P2
2023/11/12 00:00:46;;;;;;;;;;;;;;;;;;5073982;28;19920;-71
2023/11/12 00:03:12;;;;;;;;;;;;;;;;;;5068906;28;20308;-72
2023/11/12 00:05:38;;;;;;;;;;;;;;;;;;5072048;28;19908;-72
2023/11/12 00:08:04;;;;;;;;;;;;;;;;;;5074259;28;19917;-71
2023/11/12 00:10:31;;;;;;;;;;;;;;;;;;5073262;28;19958;-72
2023/11/12 00:12:57;;;;;;;;;;;;;;;;;;5074414;28;20394;-68
2023/11/12 00:15:22;;;;;;;;;;;;;;;;;;5074315;28;19908;-72
2023/11/12 00:17:48;;;;;;;;;;;;;;;;;;5056308;28;19916;-71
2023/11/12 00:20:15;;;;;;;;;;;;;;;;;;5053627;28;19967;-71
2023/11/12 00:22:41;;;;;;;;;;;;;;;;;;5074073;28;19916;-71
2023/11/12 00:25:08;;;;;;;;;;;;;;;;;;5055715;28;19917;-71
2023/11/12 00:27:34;;;;;;;;;;;;;;;;;;5074036;28;19915;-72
2023/11/12 00:30:00;;;;;;;;;;;;;;;;;;5073478;28;19964;-71
2023/11/12 00:32:26;;;;;;;;;;;;;;;;;;5073824;28;20061;-71
2023/11/12 00:34:52;;;;;;;;;;;;;;;;;;5073836;28;19908;-71
2023/11/12 00:37:18;;;;;;;;;;;;;;;;;;5071350;28;19913;-71
2023/11/12 00:39:45;;;;;;;;;;;;;;;;;;5073256;28;19961;-72
2023/11/12 00:42:11;;;;;;;;;;;;;;;;;;5055727;28;19919;-72
2023/11/12 00:44:37;;;;;;;;;;;;;;;;;;5055614;28;19913;-72
2023/11/12 00:47:04;;;;;;;;;;;;;;;;;;5052550;28;19920;-72
2023/11/12 00:49:30;;;;;;;;;;;;;;;;;;5065194;28;19913;-72
2023/11/12 00:51:55;;;;;;;;;;;;;;;;;;5073344;28;19914;-71
2023/11/12 00:54:21;;;;;;;;;;;;;;;;;;5070906;28;20291;-70
2023/11/12 00:56:47;;;;;;;;;;;;;;;;;;5072383;28;19920;-71
2023/11/12 00:59:13;;;;;;;;;;;;;;;;;;5073383;28;19909;-71
2023/11/12 01:01:39;;;;;;;;;;;;;;;;;;5073243;28;19980;-72
2023/11/12 01:04:05;;;;;;;;;;;;;;;;;;5071233;28;20284;-71
2023/11/12 01:06:33;;;;;;;;;;;;;;;;;;5071129;28;19923;-71
2023/11/12 01:08:59;;;;;;;;;;;;;;;;;;5071541;28;19979;-70
2023/11/12 01:11:25;;;;;;;;;;;;;;;;;;5069268;28;20422;-71
2023/11/12 01:13:51;;;;;;;;;;;;;;;;;;5072701;28;19908;-71
2023/11/12 01:16:17;;;;;;;;;;;;;;;;;;5073063;28;19912;-71
2023/11/12 01:18:42;;;;;;;;;;;;;;;;;;5058850;28;20008;-71
2023/11/12 01:21:09;;;;;;;;;;;;;;;;;;5054814;28;19922;-71
2023/11/12 01:23:35;;;;;;;;;;;;;;;;;;5073304;28;19930;-72
2023/11/12 01:26:00;;;;;;;;;;;;;;;;;;5071467;28;19955;-69
2023/11/12 01:28:29;;;;;;;;;;;;;;;;;;5072652;28;19917;-71
2023/11/12 01:30:55;;;;;;;;;;;;;;;;;;5072589;28;20372;-71
2023/11/12 01:33:21;;;;;;;;;;;;;;;;;;5071763;28;19912;-72
2023/11/12 01:35:47;;;;;;;;;;;;;;;;;;5072499;28;19995;-71
2023/11/12 01:38:13;;;;;;;;;;;;;;;;;;5072542;28;19912;-70
2023/11/12 01:40:39;;;;;;;;;;;;;;;;;;5072680;28;19916;-71
2023/11/12 01:43:07;;;;;;;;;;;;;;;;;;5069896;28;19920;-71
2023/11/12 01:45:33;;;;;;;;;;;;;;;;;;5072673;28;19909;-71
2023/11/12 01:47:58;;;;;;;;;;;;;;;;;;5072462;28;19923;-71
2023/11/12 01:50:24;;;;;;;;;;;;;;;;;;5072477;28;20369;-71
2023/11/12 01:52:50;;;;;;;;;;;;;;;;;;5072101;28;20015;-71
2023/11/12 01:55:16;;;;;;;;;;;;;;;;;;5054661;28;20276;-71
2023/11/12 01:57:43;;;;;;;;;;;;;;;;;;5065876;28;19919;-71
2023/11/12 02:00:15;;;;;;;;;;;;;;;;;;5067420;28;20010;-71
2023/11/12 02:02:41;;;;;;;;;;;;;;;;;;5081634;28;19913;-71
2023/11/12 02:05:08;;;;;;;;;;;;;;;;;;5075819;28;20399;-71
2023/11/12 02:07:34;;;;;;;;;;;;;;;;;;5072420;28;19943;-71
2023/11/12 02:10:09;;;;;;;;;;;;;;;;;;5076376;28;20012;-71
2023/11/12 02:12:35;;;;;;;;;;;;;;;;;;5092416;28;19908;-71
2023/11/12 02:15:00;;;;;;;;;;;;;;;;;;5063482;28;19936;-71
2023/11/12 02:17:27;;;;;;;;;;;;;;;;;;5058663;28;20160;-71
2023/11/12 02:19:53;;;;;;;;;;;;;;;;;;5058551;28;19912;-71
2023/11/12 02:22:19;;;;;;;;;;;;;;;;;;5076313;28;20291;-71
2023/11/12 02:24:45;;;;;;;;;;;;;;;;;;5076440;28;19947;-71
2023/11/12 02:27:11;;;;;;;;;;;;;;;;;;5059723;28;19925;-71
2023/11/12 02:29:37;;;;;;;;;;;;;;;;;;5076257;28;19912;-71
2023/11/12 02:32:03;;;;;;;;;;;;;;;;;;5075285;28;19962;-71
2023/11/12 02:34:29;;;;;;;;;;;;;;;;;;5074762;28;19916;-71
2023/11/12 02:36:55;;;;;;;;;;;;;;;;;;5076177;28;19908;-70
2023/11/12 02:39:22;;;;;;;;;;;;;;;;;;5075511;28;19959;-69
2023/11/12 02:41:48;;;;;;;;;;;;;;;;;;5075585;28;19978;-71
2023/11/12 02:44:14;;;;;;;;;;;;;;;;;;5080768;28;20398;-71
2023/11/12 02:46:40;;;;;;;;;;;;;;;;;;5096102;28;19908;-71
2023/11/12 02:49:06;;;;;;;;;;;;;;;;;;5077944;28;19912;-71
2023/11/12 02:51:32;;;;;;;;;;;;;;;;;;5075900;28;19956;-71
2023/11/12 02:53:58;;;;;;;;;;;;;;;;;;5075736;28;20370;-71
2023/11/12 02:56:24;;;;;;;;;;;;;;;;;;5076975;28;20008;-71
2023/11/12 02:58:51;;;;;;;;;;;;;;;;;;5049434;28;20369;-70
2023/11/12 03:01:19;;;;;;;;;;;;;;;;;;5068825;28;19920;-70
2023/11/12 03:03:45;;;;;;;;;;;;;;;;;;5075493;28;19909;-71
2023/11/12 03:06:12;;;;;;;;;;;;;;;;;;5074772;28;19909;-70
2023/11/12 03:08:37;;;;;;;;;;;;;;;;;;5072779;28;19917;-70
2023/11/12 03:11:03;;;;;;;;;;;;;;;;;;5075451;28;20003;-71
2023/11/12 03:13:29;;;;;;;;;;;;;;;;;;5075399;28;19909;-71
2023/11/12 03:15:55;;;;;;;;;;;;;;;;;;5074244;28;20292;-71
2023/11/12 03:18:22;;;;;;;;;;;;;;;;;;5075285;28;19919;-70
2023/11/12 03:20:48;;;;;;;;;;;;;;;;;;5075161;28;20364;-71
2023/11/12 03:23:14;;;;;;;;;;;;;;;;;;5073060;28;19912;-71
2023/11/12 03:25:40;;;;;;;;;;;;;;;;;;5072728;28;19925;-72
2023/11/12 03:28:06;;;;;;;;;;;;;;;;;;5049290;28;20327;-71
2023/11/12 03:30:32;;;;;;;;;;;;;;;;;;5055168;28;19909;-71
2023/11/12 03:32:58;;;;;;;;;;;;;;;;;;5055079;28;20007;-71
2023/11/12 03:35:24;;;;;;;;;;;;;;;;;;5070789;28;19908;-71
2023/11/12 03:37:50;;;;;;;;;;;;;;;;;;5074693;28;19928;-71
2023/11/12 03:40:16;;;;;;;;;;;;;;;;;;5056918;28;20339;-71
2023/11/12 03:42:42;;;;;;;;;;;;;;;;;;5072846;28;19917;-69
2023/11/12 03:45:08;;;;;;;;;;;;;;;;;;5074423;28;20400;-71
2023/11/12 03:47:34;;;;;;;;;;;;;;;;;;5056606;28;19913;-71
2023/11/12 03:50:01;;;;;;;;;;;;;;;;;;5074442;28;20482;-71
2023/11/12 03:52:27;;;;;;;;;;;;;;;;;;5085785;28;20300;-71
2023/11/12 03:54:53;;;;;;;;;;;;;;;;;;5073376;28;19912;-72
2023/11/12 03:57:19;;;;;;;;;;;;;;;;;;5055731;28;20384;-72
2023/11/12 03:59:45;;;;;;;;;;;;;;;;;;5077639;28;19958;-71
2023/11/12 04:02:11;;;;;;;;;;;;;;;;;;5089140;28;19923;-71
2023/11/12 04:04:36;;;;;;;;;;;;;;;;;;5085168;28;20001;-71
2023/11/12 04:07:02;;;;;;;;;;;;;;;;;;5073772;28;20319;-71
2023/11/12 04:09:28;;;;;;;;;;;;;;;;;;5074499;28;19959;-71
2023/11/12 04:11:54;;;;;;;;;;;;;;;;;;5072579;28;19950;-71
2023/11/12 04:14:20;;;;;;;;;;;;;;;;;;5056854;28;19995;-71
2023/11/12 04:16:46;;;;;;;;;;;;;;;;;;5072586;28;19912;-71
2023/11/12 04:19:12;;;;;;;;;;;;;;;;;;5074133;28;19935;-71
2023/11/12 04:21:38;;;;;;;;;;;;;;;;;;5073929;28;19956;-71
2023/11/12 04:24:05;;;;;;;;;;;;;;;;;;5059073;28;19912;-71
2023/11/12 04:26:31;;;;;;;;;;;;;;;;;;5054009;28;19924;-71
2023/11/12 04:28:58;;;;;;;;;;;;;;;;;;5054013;28;19917;-72
2023/11/12 04:31:24;;;;;;;;;;;;;;;;;;5073172;28;20390;-72
2023/11/12 04:33:52;;;;;;;;;;;;;;;;;;5072743;28;19912;-71
2023/11/12 04:36:18;;;;;;;;;;;;;;;;;;5055726;28;19919;-72
2023/11/12 04:38:44;;;;;;;;;;;;;;;;;;5055437;28;19908;-71
2023/11/12 04:41:11;;;;;;;;;;;;;;;;;;5073490;28;20340;-72
2023/11/12 04:43:37;;;;;;;;;;;;;;;;;;5073652;28;19916;-71
2023/11/12 04:46:03;;;;;;;;;;;;;;;;;;5055558;28;19915;-71
2023/11/12 04:48:29;;;;;;;;;;;;;;;;;;5072685;28;19912;-71
2023/11/12 04:50:55;;;;;;;;;;;;;;;;;;5071966;28;20307;-71
2023/11/12 04:53:21;;;;;;;;;;;;;;;;;;5052332;28;20020;-68
2023/11/12 04:55:47;;;;;;;;;;;;;;;;;;5070894;28;19921;-68
2023/11/12 04:58:14;;;;;;;;;;;;;;;;;;5073273;28;20327;-68
2023/11/12 05:00:40;;;;;;;;;;;;;;;;;;5073402;28;19912;-68
2023/11/12 05:03:07;;;;;;;;;;;;;;;;;;5067191;28;19959;-68
2023/11/12 05:05:33;;;;;;;;;;;;;;;;;;5090745;28;20399;-68
2023/11/12 05:07:59;;;;;;;;;;;;;;;;;;5078201;28;19913;-69
2023/11/12 05:10:25;;;;;;;;;;;;;;;;;;5092984;28;19908;-69
2023/11/12 05:12:51;;;;;;;;;;;;;;;;;;5092355;28;19969;-69
2023/11/12 05:15:17;;;;;;;;;;;;;;;;;;5093088;28;19915;-69
2023/11/12 05:17:43;;;;;;;;;;;;;;;;;;5090930;28;20455;-69
2023/11/12 05:20:09;;;;;;;;;;;;;;;;;;5069871;28;20015;-69
2023/11/12 05:22:35;;;;;;;;;;;;;;;;;;5074714;28;19943;-69
2023/11/12 05:25:00;;;;;;;;;;;;;;;;;;5092286;28;19908;-69
2023/11/12 05:27:26;;;;;;;;;;;;;;;;;;5091945;28;19916;-69
2023/11/12 05:29:52;;;;;;;;;;;;;;;;;;5068512;28;19912;-68
2023/11/12 05:32:18;;;;;;;;;;;;;;;;;;5085160;28;20325;-69
2023/11/12 05:34:44;;;;;;;;;;;;;;;;;;5070327;28;19952;-69
2023/11/12 05:37:10;;;;;;;;;;;;;;;;;;5083162;28;19912;-69
2023/11/12 05:39:36;;;;;;;;;;;;;;;;;;5090834;28;20291;-69
2023/11/12 05:42:02;;;;;;;;;;;;;;;;;;5092742;28;19916;-69
2023/11/12 05:44:28;;;;;;;;;;;;;;;;;;5092553;28;19920;-68
2023/11/12 05:46:54;;;;;;;;;;;;;;;;;;5092740;28;19994;-68
2023/11/12 05:49:20;;;;;;;;;;;;;;;;;;5069147;28;20451;-69
2023/11/12 05:51:46;;;;;;;;;;;;;;;;;;5084251;28;19953;-69
2023/11/12 05:54:12;;;;;;;;;;;;;;;;;;5086193;28;19912;-69
2023/11/12 05:56:38;;;;;;;;;;;;;;;;;;5079331;28;20394;-69
2023/11/12 05:59:04;;;;;;;;;;;;;;;;;;5089871;28;19908;-69
2023/11/12 06:01:29;;;;;;;;;;;;;;;;;;5086653;28;19995;-69
2023/11/12 06:03:58;;;;;;;;;;;;;;;;;;5088863;28;20280;-68
2023/11/12 06:06:25;;;;;;;;;;;;;;;;;;5085497;28;19916;-68
2023/11/12 06:08:51;;;;;;;;;;;;;;;;;;5092522;28;19908;-68
2023/11/12 06:11:17;;;;;;;;;;;;;;;;;;5081946;28;19923;-68
2023/11/12 06:13:43;;;;;;;;;;;;;;;;;;5079613;28;19912;-68
2023/11/12 06:16:09;;;;;;;;;;;;;;;;;;5078649;28;19913;-69
2023/11/12 06:18:35;;;;;;;;;;;;;;;;;;5092443;28;19996;-69
2023/11/12 06:21:01;;;;;;;;;;;;;;;;;;5091624;28;20383;-68
2023/11/12 06:23:27;;;;;;;;;;;;;;;;;;5091384;28;20411;-69
2023/11/12 06:25:53;;;;;;;;;;;;;;;;;;5089661;28;19963;-69
2023/11/12 06:28:20;;;;;;;;;;;;;;;;;;5091713;28;20379;-68
2023/11/12 06:30:46;;;;;;;;;;;;;;;;;;5091173;28;19908;-68
2023/11/12 06:33:12;;;;;;;;;;;;;;;;;;5084339;28;19943;-69
2023/11/12 06:35:38;;;;;;;;;;;;;;;;;;5072012;28;20016;-68
2023/11/12 06:38:04;;;;;;;;;;;;;;;;;;5073377;28;19912;-68
2023/11/12 06:40:29;;;;;;;;;;;;;;;;;;5090288;28;20413;-68
2023/11/12 06:42:55;;;;;;;;;;;;;;;;;;5084021;28;19960;-68
2023/11/12 06:45:21;;;;;;;;;;;;;;;;;;5083801;28;19915;-68
2023/11/12 06:47:47;;;;;;;;;;;;;;;;;;5078176;28;19912;-68
2023/11/12 06:50:13;;;;;;;;;;;;;;;;;;5091082;28;19988;-68
2023/11/12 06:52:39;;;;;;;;;;;;;;;;;;5081163;28;19908;-68
2023/11/12 06:55:05;;;;;;;;;;;;;;;;;;5075096;28;19919;-68
2023/11/12 06:57:33;;;;;;;;;;;;;;;;;;5067928;28;19909;-68
2023/11/12 06:59:59;;;;;;;;;;;;;;;;;;5068815;28;19986;-68
2023/11/12 07:02:25;;;;;;;;;;;;;;;;;;5070195;28;19920;-68
2023/11/12 07:04:51;;;;;;;;;;;;;;;;;;5093553;28;20451;-68
2023/11/12 07:07:16;;;;;;;;;;;;;;;;;;5094976;28;19908;-68
2023/11/12 07:09:44;;;;;;;;;;;;;;;;;;5094664;28;19970;-68
2023/11/12 07:12:10;;;;;;;;;;;;;;;;;;5090079;28;19912;-68
2023/11/12 07:14:36;;;;;;;;;;;;;;;;;;5070613;28;19948;-68
2023/11/12 07:17:02;;;;;;;;;;;;;;;;;;5078726;28;20005;-68
2023/11/12 07:19:28;;;;;;;;;;;;;;;;;;5073347;28;19999;-68
2023/11/12 07:21:54;;;;;;;;;;;;;;;;;;5094543;28;20014;-68
2023/11/12 07:24:20;;;;;;;;;;;;;;;;;;5094472;28;19908;-68
2023/11/12 07:26:46;;;;;;;;;;;;;;;;;;5072555;28;20004;-68
2023/11/12 07:29:14;;;;;;;;;;;;;;;;;;5088131;28;20006;-68
2023/11/12 07:31:40;;;;;;;;;;;;;;;;;;5078145;28;20003;-68
2023/11/12 07:34:06;;;;;;;;;;;;;;;;;;5074272;28;20052;-71
2023/11/12 07:36:32;;;;;;;;;;;;;;;;;;5094256;28;20026;-71
2023/11/12 07:38:58;;;;;;;;;;;;;;;;;;5071163;28;20286;-71
2023/11/12 07:41:24;;;;;;;;;;;;;;;;;;5083768;28;19956;-71
2023/11/12 07:43:50;;;;;;;;;;;;;;;;;;5068259;28;20032;-68
2023/11/12 07:46:16;;;;;;;;;;;;;;;;;;5070967;28;20439;-68
2023/11/12 07:48:42;;;;;;;;;;;;;;;;;;5087851;28;20280;-68
2023/11/12 07:51:08;;;;;;;;;;;;;;;;;;5066004;28;19917;-68
2023/11/12 07:53:34;;;;;;;;;;;;;;;;;;5070935;28;19917;-68
2023/11/12 07:55:59;;;;;;;;;;;;;;;;;;5085868;28;19958;-68
2023/11/12 07:58:25;;;;;;;;;;;;;;;;;;5076544;28;20011;-68
2023/11/12 08:00:51;;;;;;;;;;;;;;;;;;5074494;28;19962;-68
2023/11/12 08:03:17;;;;;;;;;;;;;;;;;;5083087;28;19928;-68
2023/11/12 08:05:43;;;;;;;;;;;;;;;;;;5086604;28;19967;-68
2023/11/12 08:08:09;;;;;;;;;;;;;;;;;;5076103;28;19913;-68
2023/11/12 08:10:37;;;;;;;;;;;;;;;;;;5074439;28;20429;-68
2023/11/12 08:13:03;;;;;;;;;;;;;;;;;;5058763;28;19990;-68
2023/11/12 08:15:28;;;;;;;;;;;;;;;;;;5070185;28;20341;-68
2023/11/12 08:17:54;;;;;;;;;;;;;;;;;;5082741;28;19919;-68
2023/11/12 08:20:20;;;;;;;;;;;;;;;;;;5087050;28;19926;-67
2023/11/12 08:22:46;;;;;;;;;;;;;;;;;;5079600;28;20432;-67
2023/11/12 08:25:12;;;;;;;;;;;;;;;;;;5084633;28;19923;-67
2023/11/12 08:27:38;;;;;;;;;;;;;;;;;;5091145;28;20279;-68
2023/11/12 08:30:05;;;;;;;;;;;;;;;;;;5079534;28;19913;-68
2023/11/12 08:32:31;;;;;;;;;;;;;;;;;;5088390;28;19963;-67
2023/11/12 08:34:57;;;;;;;;;;;;;;;;;;5084953;28;20478;-67
2023/11/12 08:37:23;;;;;;;;;;;;;;;;;;5089469;28;19943;-67
2023/11/12 08:39:49;;;;;;;;;;;;;;;;;;5073483;28;19961;-68
2023/11/12 08:42:15;;;;;;;;;;;;;;;;;;5070575;28;20277;-67
2023/11/12 08:44:41;;;;;;;;;;;;;;;;;;5080842;28;19919;-67
2023/11/12 08:47:08;;;;;;;;;;;;;;;;;;5092951;28;19955;-67
2023/11/12 08:49:34;;;;;;;;;;;;;;;;;;5092790;28;19931;-67
2023/11/12 08:52:00;;;;;;;;;;;;;;;;;;5089948;28;19908;-67
2023/11/12 08:54:25;;;;;;;;;;;;;;;;;;5076557;28;19962;-67
2023/11/12 08:56:54;;;;;;;;;;;;;;;;;;5078787;28;20432;-67
2023/11/12 08:59:22;;;;;;;;;;;;;;;;;;5091681;28;19912;-66
2023/11/12 09:01:48;;;;;;;;;;;;;;;;;;5085352;28;19920;-67
2023/11/12 09:04:14;;;;;;;;;;;;;;;;;;5076178;28;19981;-67
2023/11/12 09:06:40;;;;;;;;;;;;;;;;;;5069167;28;19913;-67
2023/11/12 09:09:05;;;;;;;;;;;;;;;;;;5091351;28;19920;-67
2023/11/12 09:11:31;;;;;;;;;;;;;;;;;;5085279;28;19955;-67
2023/11/12 09:14:00;;;;;;;;;;;;;;;;;;5078884;28;19916;-67
2023/11/12 09:16:26;;;;;;;;;;;;;;;;;;5092412;28;19944;-67
2023/11/12 09:18:52;;;;;;;;;;;;;;;;;;5088077;28;19970;-67
2023/11/12 09:21:19;;;;;;;;;;;;;;;;;;5067945;28;20392;-67
2023/11/12 09:23:47;;;;;;;;;;;;;;;;;;5077850;28;19916;-66
2023/11/12 09:26:14;;;;;;;;;;;;;;;;;;5072725;28;19920;-67
2023/11/12 09:28:40;;;;;;;;;;;;;;;;;;5074744;28;19912;-67
2023/11/12 09:31:06;;;;;;;;;;;;;;;;;;5080342;28;19961;-66
2023/11/12 09:33:32;;;;;;;;;;;;;;;;;;5072408;28;20006;-66
2023/11/12 09:35:58;;;;;;;;;;;;;;;;;;5072698;28;19967;-67
2023/11/12 09:38:24;;;;;;;;;;;;;;;;;;5082629;28;19995;-67
2023/11/12 09:40:50;;;;;;;;;;;;;;;;;;5063687;28;20428;-67
2023/11/12 09:43:17;;;;;;;;;;;;;;;;;;5087552;28;20368;-67
2023/11/12 09:45:45;;;;;;;;;;;;;;;;;;5073502;28;19919;-67
2023/11/12 09:48:11;;;;;;;;;;;;;;;;;;5091167;28;19908;-67
2023/11/12 09:50:37;;;;;;;;;;;;;;;;;;5091812;28;20332;-67
2023/11/12 09:53:03;;;;;;;;;;;;;;;;;;5091872;28;19908;-67
2023/11/12 09:55:30;;;;;;;;;;;;;;;;;;5076117;28;20025;-67
2023/11/12 09:57:57;;;;;;;;;;;;;;;;;;5071091;28;19909;-67
2023/11/12 10:00:23;;;;;;;;;;;;;;;;;;5087317;28;19912;-67
2023/11/12 10:02:49;;;;;;;;;;;;;;;;;;5073831;28;19920;-67
2023/11/12 10:05:15;;;;;;;;;;;;;;;;;;5059894;28;19982;-67
2023/11/12 10:07:41;;;;;;;;;;;;;;;;;;5073605;28;20222;-67
2023/11/12 10:10:08;;;;;;;;;;;;;;;;;;5087280;28;19975;-67
2023/11/12 10:12:34;;;;;;;;;;;;;;;;;;5083799;28;19975;-67
2023/11/12 10:15:00;;;;;;;;;;;;;;;;;;5081475;28;19912;-67
2023/11/12 10:17:27;;;;;;;;;;;;;;;;;;5080557;28;19915;-67
2023/11/12 10:19:53;;;;;;;;;;;;;;;;;;5090486;28;20264;-67
2023/11/12 10:22:18;;;;;;;;;;;;;;;;;;5080804;28;19923;-67
2023/11/12 10:24:44;;;;;;;;;;;;;;;;;;5091609;28;19951;-67
2023/11/12 10:27:14;;;;;;;;;;;;;;;;;;5081605;28;20459;-67
2023/11/12 10:29:40;;;;;;;;;;;;;;;;;;5078776;28;19912;-67
2023/11/12 10:32:06;;;;;;;;;;;;;;;;;;5086084;28;19930;-67
2023/11/12 10:34:33;;;;;;;;;;;;;;;;;;5089746;28;19908;-67
2023/11/12 10:36:59;;;;;;;;;;;;;;;;;;5084032;28;19916;-67
2023/11/12 10:39:26;;;;;;;;;;;;;;;;;;5094293;28;19912;-67
2023/11/12 10:41:52;;;;;;;;;;;;;;;;;;5095214;28;19912;-67
2023/11/12 10:44:18;;;;;;;;;;;;;;;;;;5084419;28;20013;-67
2023/11/12 10:46:50;;;;;;;;;;;;;;;;;;5075267;28;19936;-67
2023/11/12 10:49:20;;;;;;;;;;;;;;;;;;5092926;28;19908;-67
2023/11/12 10:51:46;;;;;;;;;;;;;;;;;;5083412;28;19909;-67
2023/11/12 10:54:13;;;;;;;;;;;;;;;;;;5079579;28;20010;-67
2023/11/12 10:56:39;;;;;;;;;;;;;;;;;;5086616;28;19965;-67
2023/11/12 10:59:05;;;;;;;;;;;;;;;;;;5093681;28;19980;-67
2023/11/12 11:01:31;;;;;;;;;;;;;;;;;;5082719;28;20317;-67
2023/11/12 11:03:57;;;;;;;;;;;;;;;;;;5090186;28;20015;-67
2023/11/12 11:06:23;;;;;;;;;;;;;;;;;;5083302;28;20280;-67
2023/11/12 11:08:49;;;;;;;;;;;;;;;;;;5090148;28;20218;-69
2023/11/12 11:11:15;;;;;;;;;;;;;;;;;;5083233;28;20356;-69
2023/11/12 11:13:41;;;;;;;;;;;;;;;;;;5090182;28;20399;-74
2023/11/12 11:16:07;;;;;;;;;;;;;;;;;;5089680;28;20007;-70
2023/11/12 11:18:38;;;;;;;;;;;;;;;;;;5071628;28;19908;-73
2023/11/12 11:21:13;;;;;;;;;;;;;;;;;;5094846;28;19955;-73
2023/11/12 11:23:39;;;;;;;;;;;;;;;;;;5085991;28;19931;-71
2023/11/12 11:26:05;;;;;;;;;;;;;;;;;;5062411;28;19964;-71
2023/11/12 11:28:34;;;;;;;;;;;;;;;;;;5086965;28;19916;-72
2023/11/12 11:31:00;;;;;;;;;;;;;;;;;;5062290;28;19920;-72
2023/11/12 11:33:26;;;;;;;;;;;;;;;;;;5088121;28;20283;-72
2023/11/12 11:35:52;;;;;;;;;;;;;;;;;;5089777;28;20406;-73
2023/11/12 11:38:23;;;;;;;;;;;;;;;;;;5081834;28;19952;-72
2023/11/12 11:40:49;;;;;;;;;;;;;;;;;;5082262;28;19912;-73
2023/11/12 11:43:15;;;;;;;;;;;;;;;;;;5076631;28;19994;-72
2023/11/12 11:45:40;;;;;;;;;;;;;;;;;;5086634;28;20368;-72
2023/11/12 11:48:06;;;;;;;;;;;;;;;;;;5079148;28;20005;-73
2023/11/12 11:50:32;;;;;;;;;;;;;;;;;;5084962;28;19920;-72
2023/11/12 11:52:58;;;;;;;;;;;;;;;;;;5074639;28;19917;-72
2023/11/12 11:55:24;;;;;;;;;;;;;;;;;;5071102;28;20368;-72
2023/11/12 11:57:51;;;;;;;;;;;;;;;;;;5086577;28;20002;-72
2023/11/12 12:00:17;;;;;;;;;;;;;;;;;;5093369;28;20368;-71
2023/11/12 12:02:44;;;;;;;;;;;;;;;;;;5084902;28;20033;-71
2023/11/12 12:05:10;;;;;;;;;;;;;;;;;;5079568;28;19920;-71
2023/11/12 12:07:38;;;;;;;;;;;;;;;;;;5073836;28;19912;-72
2023/11/12 12:10:04;;;;;;;;;;;;;;;;;;5078112;28;20344;-71
2023/11/12 12:12:30;;;;;;;;;;;;;;;;;;5068137;28;19912;-72
2023/11/12 12:14:56;;;;;;;;;;;;;;;;;;5066127;28;19909;-67
2023/11/12 12:17:22;;;;;;;;;;;;;;;;;;5079024;28;19948;-67
2023/11/12 12:19:48;;;;;;;;;;;;;;;;;;5085380;28;19916;-68
2023/11/12 12:22:14;;;;;;;;;;;;;;;;;;5084143;28;20772;-67
2023/11/12 12:24:42;;;;;;;;;;;;;;;;;;5093471;28;19915;-69
2023/11/12 12:27:12;;;;;;;;;;;;;;;;;;5073528;28;19931;-69
2023/11/12 12:29:39;;;;;;;;;;;;;;;;;;5093554;28;19916;-69
2023/11/12 12:32:04;;;;;;;;;;;;;;;;;;5080214;28;19908;-68
2023/11/12 12:34:30;;;;;;;;;;;;;;;;;;5093247;28;20296;-69
2023/11/12 12:36:56;;;;;;;;;;;;;;;;;;5087770;28;19943;-68
2023/11/12 12:39:23;;;;;;;;;;;;;;;;;;5079369;28;19934;-68
2023/11/12 12:41:49;;;;;;;;;;;;;;;;;;5081273;28;19983;-71
2023/11/12 12:44:15;;;;;;;;;;;;;;;;;;5089858;28;20044;-67
2023/11/12 12:46:41;;;;;;;;;;;;;;;;;;5085288;28;20002;-66
2023/11/12 12:49:09;;;;;;;;;;;;;;;;;;5072713;28;19961;-66
2023/11/12 12:51:35;;;;;;;;;;;;;;;;;;5085039;28;19908;-69
2023/11/12 12:54:04;;;;;;;;;;;;;;;;;;5075143;28;20641;-69
2023/11/12 12:56:30;;;;;;;;;;;;;;;;;;5080380;28;19915;-68
2023/11/12 12:58:57;;;;;;;;;;;;;;;;;;5081689;28;19947;-69
2023/11/12 13:01:23;;;;;;;;;;;;;;;;;;5088642;28;19919;-69
2023/11/12 13:03:49;;;;;;;;;;;;;;;;;;5082891;28;20287;-69
2023/11/12 13:06:16;;;;;;;;;;;;;;;;;;5089114;28;19915;-67
2023/11/12 13:08:43;;;;;;;;;;;;;;;;;;5076757;28;19923;-69
2023/11/12 13:11:09;;;;;;;;;;;;;;;;;;5078799;28;19916;-67
2023/11/12 13:13:36;;;;;;;;;;;;;;;;;;5073301;28;19912;-68
2023/11/12 13:16:02;;;;;;;;;;;;;;;;;;5085686;28;19917;-66
2023/11/12 13:18:29;;;;;;;;;;;;;;;;;;5073143;28;19912;-68
2023/11/12 13:20:55;;;;;;;;;;;;;;;;;;5086770;28;20299;-68
2023/11/12 13:23:22;;;;;;;;;;;;;;;;;;5083412;28;19999;-67
2023/11/12 13:25:49;;;;;;;;;;;;;;;;;;5065330;28;19981;-66
2023/11/12 13:28:16;;;;;;;;;;;;;;;;;;5077316;28;20334;-66
2023/11/12 13:30:43;;;;;;;;;;;;;;;;;;5074204;28;19917;-67
2023/11/12 13:33:09;;;;;;;;;;;;;;;;;;5083125;28;19912;-69
2023/11/12 13:35:35;;;;;;;;;;;;;;;;;;5075191;28;19921;-69
2023/11/12 13:38:01;;;;;;;;;;;;;;;;;;5071661;28;20336;-68
2023/11/12 13:40:27;;;;;;;;;;;;;;;;;;5070609;28;19967;-69
2023/11/12 13:42:54;;;;;;;;;;;;;;;;;;5074906;28;20368;-68
2023/11/12 13:45:20;;;;;;;;;;;;;;;;;;5084704;28;19912;-69
2023/11/12 13:47:46;;;;;;;;;;;;;;;;;;5079982;28;20294;-69
2023/11/12 13:50:13;;;;;;;;;;;;;;;;;;5085673;28;19951;-68
2023/11/12 13:52:39;;;;;;;;;;;;;;;;;;5075514;28;19912;-68
2023/11/12 13:55:05;;;;;;;;;;;;;;;;;;5090869;28;20052;-67
2023/11/12 13:57:34;;;;;;;;;;;;;;;;;;5092068;28;20019;-67
2023/11/12 14:00:00;;;;;;;;;;;;;;;;;;5083316;28;19912;-68
2023/11/12 14:02:26;;;;;;;;;;;;;;;;;;5078570;28;20383;-69
2023/11/12 14:04:52;;;;;;;;;;;;;;;;;;5091427;28;19908;-67
2023/11/12 14:07:18;;;;;;;;;;;;;;;;;;5078311;28;20155;-68
2023/11/12 14:09:47;;;;;;;;;;;;;;;;;;5079910;28;19908;-69
2023/11/12 14:12:13;;;;;;;;;;;;;;;;;;5072081;28;20043;-68
2023/11/12 14:14:40;;;;;;;;;;;;;;;;;;5081493;28;19999;-69
2023/11/12 14:17:09;;;;;;;;;;;;;;;;;;5089745;28;20379;-69
2023/11/12 14:19:35;;;;;;;;;;;;;;;;;;5075227;28;19927;-69
2023/11/12 14:22:00;;;;;;;;;;;;;;;;;;5085833;28;19912;-69
2023/11/12 14:24:26;;;;;;;;;;;;;;;;;;5084672;28;19951;-67
2023/11/12 14:26:53;;;;;;;;;;;;;;;;;;5070830;28;20359;-69
2023/11/12 14:29:19;;;;;;;;;;;;;;;;;;5077647;28;19913;-69
2023/11/12 14:31:46;;;;;;;;;;;;;;;;;;5089728;28;19918;-67
2023/11/12 14:34:12;;;;;;;;;;;;;;;;;;5094499;28;20411;-67
2023/11/12 14:36:38;;;;;;;;;;;;;;;;;;5087300;28;19916;-67
2023/11/12 14:39:08;;;;;;;;;;;;;;;;;;5084738;28;20031;-67
2023/11/12 14:41:34;;;;;;;;;;;;;;;;;;5091074;28;19999;-67
2023/11/12 14:44:01;;;;;;;;;;;;;;;;;;5080278;28;20054;-68
2023/11/12 14:46:27;;;;;;;;;;;;;;;;;;5074095;28;20264;-70
2023/11/12 14:48:53;;;;;;;;;;;;;;;;;;5087528;28;19999;-73
2023/11/12 14:51:19;;;;;;;;;;;;;;;;;;5057784;28;19995;-73
2023/11/12 14:53:45;;;;;;;;;;;;;;;;;;5075616;28;20002;-72
2023/11/12 14:56:15;;;;;;;;;;;;;;;;;;5080111;28;19912;-72
2023/11/12 14:58:41;;;;;;;;;;;;;;;;;;5086378;28;20007;-72
2023/11/12 15:01:08;;;;;;;;;;;;;;;;;;5051794;28;20393;-71
2023/11/12 15:03:35;;;;;;;;;;;;;;;;;;5068989;28;19920;-71
2023/11/12 15:06:01;;;;;;;;;;;;;;;;;;5072935;28;20311;-69
2023/11/12 15:08:28;;;;;;;;;;;;;;;;;;5073613;28;19947;-70
2023/11/12 15:10:54;;;;;;;;;;;;;;;;;;5075447;28;19920;-67
2023/11/12 15:13:21;;;;;;;;;;;;;;;;;;5078485;28;19909;-68
2023/11/12 15:15:47;;;;;;;;;;;;;;;;;;5090102;28;19915;-67
2023/11/12 15:18:14;;;;;;;;;;;;;;;;;;5081420;28;19916;-68
2023/11/12 15:20:40;;;;;;;;;;;;;;;;;;5076536;28;19921;-67
2023/11/12 15:23:06;;;;;;;;;;;;;;;;;;5074431;28;19959;-70
2023/11/12 15:25:33;;;;;;;;;;;;;;;;;;5067825;28;19925;-68
2023/11/12 15:27:59;;;;;;;;;;;;;;;;;;5066255;28;19916;-69
2023/11/12 15:30:25;;;;;;;;;;;;;;;;;;5077088;28;19915;-70
2023/11/12 15:32:53;;;;;;;;;;;;;;;;;;5065519;28;21516;-69
2023/11/12 15:35:19;;;;;;;;;;;;;;;;;;5086268;28;19920;-67
2023/11/12 15:37:45;;;;;;;;;;;;;;;;;;5074015;28;19951;-69
2023/11/12 15:40:17;;;;;;;;;;;;;;;;;;5076031;28;20290;-67
2023/11/12 15:42:43;;;;;;;;;;;;;;;;;;5095287;28;19948;-67
2023/11/12 15:45:10;;;;;;;;;;;;;;;;;;5089051;28;19923;-67
2023/11/12 15:47:37;;;;;;;;;;;;;;;;;;5076532;28;19916;-67
2023/11/12 15:50:05;;;;;;;;;;;;;;;;;;5072974;28;20364;-68
2023/11/12 15:52:31;;;;;;;;;;;;;;;;;;5088852;28;19957;-67
2023/11/12 15:54:59;;;;;;;;;;;;;;;;;;5082665;28;19953;-69
2023/11/12 15:57:25;;;;;;;;;;;;;;;;;;5077881;28;19916;-69
2023/11/12 15:59:52;;;;;;;;;;;;;;;;;;5077552;28;19946;-69
2023/11/12 16:02:18;;;;;;;;;;;;;;;;;;5091878;28;19918;-70
2023/11/12 16:04:44;;;;;;;;;;;;;;;;;;5085143;28;20006;-69
2023/11/12 16:07:10;;;;;;;;;;;;;;;;;;5077657;28;19908;-69
2023/11/12 16:09:36;;;;;;;;;;;;;;;;;;5078508;28;19919;-67
2023/11/12 16:12:02;;;;;;;;;;;;;;;;;;5084641;28;19916;-67
2023/11/12 16:14:28;;;;;;;;;;;;;;;;;;5092368;28;20594;-67
2023/11/12 16:16:54;;;;;;;;;;;;;;;;;;5083155;28;19916;-69
2023/11/12 16:19:20;;;;;;;;;;;;;;;;;;5080388;28;19916;-68
2023/11/12 16:21:47;;;;;;;;;;;;;;;;;;5092978;28;19919;-69
2023/11/12 16:24:12;;;;;;;;;;;;;;;;;;5074830;28;19922;-68
2023/11/12 16:26:38;;;;;;;;;;;;;;;;;;5066930;28;20031;-67
2023/11/12 16:29:04;;;;;;;;;;;;;;;;;;5079865;28;20389;-68
2023/11/12 16:31:30;;;;;;;;;;;;;;;;;;5075935;28;20008;-68
2023/11/12 16:33:57;;;;;;;;;;;;;;;;;;5079723;28;19912;-70
2023/11/12 16:36:23;;;;;;;;;;;;;;;;;;5083957;28;20387;-69
2023/11/12 16:38:49;;;;;;;;;;;;;;;;;;5078001;28;20003;-70